createdAt,value
2017-11-05T00:01:27.436Z,46.77
2017-11-05T00:03:55.642Z,49.73
2017-11-05T00:06:23.507Z,48.67
2017-11-05T00:08:52.678Z,46.73
2017-11-05T00:11:20.122Z,38.50
2017-11-05T00:13:48.324Z,54.67
2017-11-05T00:16:15.764Z,53.37
2017-11-05T00:18:43.976Z,60.70
2017-11-05T00:21:11.411Z,46.57
2017-11-05T00:23:38.844Z,40.23
2017-11-05T00:26:07.059Z,41.00
2017-11-05T00:28:34.495Z,39.80
2017-11-05T00:31:01.941Z,43.23
2017-11-05T00:33:30.945Z,40.40
2017-11-05T00:35:59.287Z,45.73
2017-11-05T00:38:26.714Z,46.50
2017-11-05T00:40:54.467Z,43.67
2017-11-05T00:43:21.909Z,42.20
2017-11-05T00:45:49.418Z,43.77
2017-11-05T00:48:16.851Z,39.90
2017-11-05T00:50:44.292Z,46.17
2017-11-05T00:53:12.283Z,63.60
2017-11-05T00:55:39.724Z,54.63
2017-11-05T00:58:07.939Z,45.83
2017-11-05T01:00:35.379Z,42.53
2017-11-05T01:03:03.435Z,62.70
2017-11-05T01:05:32.599Z,63.43
2017-11-05T01:08:00.051Z,56.20
2017-11-05T01:10:27.489Z,57.20
2017-11-05T01:12:57.355Z,44.53
2017-11-05T01:15:24.803Z,42.67
2017-11-05T01:17:52.235Z,46.17
2017-11-05T01:20:19.675Z,39.43
2017-11-05T01:22:47.123Z,49.20
2017-11-05T01:25:14.564Z,45.60
2017-11-05T01:27:42.012Z,43.03
2017-11-05T01:30:09.444Z,44.60
2017-11-05T01:32:37.335Z,44.20
2017-11-05T01:35:05.591Z,33.70
2017-11-05T01:37:33.031Z,37.80
2017-11-05T01:40:01.003Z,39.97
2017-11-05T01:42:28.444Z,42.60
2017-11-05T01:44:56.644Z,40.17
2017-11-05T01:47:24.079Z,40.33
2017-11-05T01:49:52.279Z,38.07
2017-11-05T01:52:20.302Z,37.97
2017-11-05T01:54:48.351Z,37.07
2017-11-05T01:57:16.211Z,33.50
2017-11-05T01:59:43.646Z,43.30
2017-11-05T02:02:11.143Z,39.37
2017-11-05T02:04:38.580Z,45.37
2017-11-05T02:07:06.595Z,42.90
2017-11-05T02:09:34.844Z,42.53
2017-11-05T02:12:02.337Z,45.60
2017-11-05T02:14:29.822Z,54.30
2017-11-05T02:16:57.320Z,45.80
2017-11-05T02:19:24.775Z,52.33
2017-11-05T02:21:52.222Z,57.40
2017-11-05T02:24:20.071Z,49.40
2017-11-05T02:26:47.955Z,38.37
2017-11-05T02:29:17.991Z,42.90
2017-11-05T02:31:45.435Z,56.60
2017-11-05T02:34:12.873Z,60.27
2017-11-05T02:36:40.314Z,42.37
2017-11-05T02:39:07.755Z,69.17
2017-11-05T02:41:35.200Z,41.97
2017-11-05T02:44:03.395Z,37.67
2017-11-05T02:46:30.848Z,51.20
2017-11-05T02:48:58.280Z,47.60
2017-11-05T02:51:27.039Z,60.57
2017-11-05T02:53:54.484Z,60.57
2017-11-05T02:56:21.918Z,66.87
2017-11-05T02:58:49.793Z,61.77
2017-11-05T03:01:17.227Z,69.00
2017-11-05T03:03:44.678Z,63.03
2017-11-05T03:06:12.118Z,73.53
2017-11-05T03:08:40.755Z,72.27
2017-11-05T03:11:08.761Z,66.60
2017-11-05T03:13:36.199Z,61.47
2017-11-05T03:16:03.635Z,51.27
2017-11-05T03:18:31.462Z,63.53
2017-11-05T03:20:59.795Z,58.27
2017-11-05T03:23:27.238Z,64.50
2017-11-05T03:25:54.995Z,65.07
2017-11-05T03:28:29.860Z,52.47
2017-11-05T03:30:57.313Z,42.17
2017-11-05T03:33:25.279Z,43.13
2017-11-05T03:35:52.718Z,44.23
2017-11-05T03:38:20.160Z,46.30
2017-11-05T03:40:47.599Z,43.80
2017-11-05T03:43:15.476Z,33.40
2017-11-05T03:45:42.914Z,44.87
2017-11-05T03:48:11.123Z,34.73
2017-11-05T03:50:38.559Z,39.83
2017-11-05T03:53:06.635Z,34.67
2017-11-05T03:55:34.922Z,33.77
2017-11-05T03:58:02.378Z,27.57
2017-11-05T04:00:29.819Z,39.77
2017-11-05T04:02:57.255Z,34.33
2017-11-05T04:05:25.458Z,37.90
2017-11-05T04:07:52.907Z,41.90
2017-11-05T04:10:20.339Z,39.10
2017-11-05T04:12:48.547Z,30.93
2017-11-05T04:15:16.255Z,39.23
2017-11-05T04:17:43.689Z,30.10
2017-11-05T04:20:11.119Z,31.30
2017-11-05T04:22:38.564Z,38.70
2017-11-05T04:25:09.421Z,30.23
2017-11-05T04:27:36.844Z,26.13
2017-11-05T04:30:05.064Z,28.03
2017-11-05T04:32:32.934Z,25.00
2017-11-05T04:35:00.823Z,41.27
2017-11-05T04:37:28.262Z,35.00
2017-11-05T04:39:58.126Z,27.13
2017-11-05T04:42:26.338Z,23.93
2017-11-05T04:44:54.223Z,33.27
2017-11-05T04:47:22.383Z,34.60
2017-11-05T04:49:50.043Z,43.37
2017-11-05T04:52:17.494Z,40.50
2017-11-05T04:54:44.935Z,41.07
2017-11-05T04:57:12.385Z,48.20
2017-11-05T04:59:40.578Z,47.47
2017-11-05T05:02:08.026Z,54.57
2017-11-05T05:04:35.458Z,50.50
2017-11-05T05:07:03.666Z,49.90
2017-11-05T05:09:31.098Z,52.73
2017-11-05T05:11:59.846Z,57.17
2017-11-05T05:14:27.280Z,50.83
2017-11-05T05:16:54.729Z,56.17
2017-11-05T05:19:22.176Z,52.77
2017-11-05T05:21:50.364Z,53.27
2017-11-05T05:24:18.162Z,60.73
2017-11-05T05:26:46.147Z,55.27
2017-11-05T05:29:13.587Z,53.10
2017-11-05T05:31:41.461Z,57.23
2017-11-05T05:34:09.402Z,59.67
2017-11-05T05:36:37.551Z,55.80
2017-11-05T05:39:04.998Z,58.33
2017-11-05T05:41:33.198Z,56.90
2017-11-05T05:44:00.642Z,60.87
2017-11-05T05:46:28.083Z,56.80
2017-11-05T05:48:56.304Z,58.73
2017-11-05T05:51:23.977Z,56.20
2017-11-05T05:53:51.411Z,55.30
2017-11-05T05:56:19.173Z,59.03
2017-11-05T05:58:47.126Z,57.53
2017-11-05T06:01:16.499Z,58.77
2017-11-05T06:03:45.331Z,58.50
2017-11-05T06:06:13.734Z,56.83
2017-11-05T06:08:41.179Z,58.77
2017-11-05T06:11:12.288Z,57.53
2017-11-05T06:13:40.836Z,53.50
2017-11-05T06:16:08.818Z,54.43
2017-11-05T06:18:36.259Z,55.80
2017-11-05T06:21:03.703Z,54.60
2017-11-05T06:23:31.147Z,56.23
2017-11-05T06:25:58.594Z,55.87
2017-11-05T06:28:26.587Z,53.30
2017-11-05T06:30:54.026Z,50.13
2017-11-05T06:33:22.300Z,52.23
2017-11-05T06:35:50.351Z,51.47
2017-11-05T06:38:17.802Z,52.33
2017-11-05T06:40:45.244Z,50.47
2017-11-05T06:43:13.469Z,50.67
2017-11-05T06:45:40.919Z,50.30
2017-11-05T06:48:08.374Z,48.63
2017-11-05T06:50:35.828Z,49.03
2017-11-05T06:53:03.275Z,45.67
2017-11-05T06:55:30.728Z,45.57
2017-11-05T06:57:58.670Z,42.83
2017-11-05T07:00:26.875Z,38.83
2017-11-05T07:02:54.743Z,36.93
2017-11-05T07:05:22.587Z,35.37
2017-11-05T07:07:51.311Z,32.70
2017-11-05T07:10:18.752Z,33.73
2017-11-05T07:12:46.194Z,35.50
2017-11-05T07:15:14.395Z,33.83
2017-11-05T07:17:41.845Z,26.93
2017-11-05T07:20:10.543Z,27.40
2017-11-05T07:22:38.008Z,29.37
2017-11-05T07:25:05.435Z,28.37
2017-11-05T07:27:35.366Z,29.47
2017-11-05T07:30:02.807Z,28.73
2017-11-05T07:32:30.272Z,29.53
2017-11-05T07:34:57.703Z,27.20
2017-11-05T07:37:25.912Z,23.17
2017-11-05T07:39:53.370Z,23.70
2017-11-05T07:42:21.334Z,25.13
2017-11-05T07:44:48.790Z,24.10
2017-11-05T07:47:16.535Z,25.17
2017-11-05T07:49:44.747Z,23.33
2017-11-05T07:52:12.196Z,24.87
2017-11-05T07:54:40.054Z,26.20
2017-11-05T07:57:07.490Z,25.90
2017-11-05T07:59:35.699Z,26.80
2017-11-05T08:02:03.144Z,25.37
2017-11-05T08:04:30.595Z,25.07
2017-11-05T08:06:58.067Z,25.27
2017-11-05T08:09:25.536Z,23.90
2017-11-05T08:11:52.967Z,25.73
2017-11-05T08:14:20.480Z,23.20
2017-11-05T08:16:47.936Z,20.27
2017-11-05T08:19:15.382Z,18.93
2017-11-05T08:21:48.706Z,20.53
2017-11-05T08:24:23.755Z,19.67
2017-11-05T08:26:51.770Z,19.20
2017-11-05T08:29:19.214Z,18.93
2017-11-05T08:31:46.655Z,18.53
2017-11-05T08:34:15.548Z,13.83
2017-11-05T08:37:00.930Z,14.87
2017-11-05T08:39:28.390Z,10.90
2017-11-05T08:41:55.837Z,10.53
2017-11-05T08:44:23.704Z,8.83
2017-11-05T08:46:51.126Z,7.00
2017-11-05T08:49:18.568Z,5.87
2017-11-05T08:51:46.442Z,4.43
2017-11-05T08:54:13.897Z,2.50
2017-11-05T08:56:41.315Z,3.23
2017-11-05T08:59:09.315Z,2.40
2017-11-05T09:01:36.741Z,2.43
2017-11-05T09:04:04.178Z,1.77
2017-11-05T09:06:31.610Z,1.27
2017-11-05T09:08:59.815Z,1.10
2017-11-05T09:11:27.239Z,1.17
2017-11-05T09:14:16.464Z,0.70
2017-11-05T09:16:44.450Z,1.00
2017-11-05T09:19:12.477Z,1.20
2017-11-05T09:21:39.903Z,1.20
2017-11-05T09:24:18.763Z,1.40
2017-11-05T09:27:03.732Z,1.40
2017-11-05T09:29:38.310Z,1.47
2017-11-05T09:32:05.737Z,1.10
2017-11-05T09:34:47.306Z,1.13
2017-11-05T09:37:14.740Z,1.40
2017-11-05T09:39:42.948Z,1.20
2017-11-05T09:42:10.364Z,1.10
2017-11-05T09:44:38.576Z,1.30
2017-11-05T09:47:06.275Z,4.77
2017-11-05T09:49:33.697Z,2.10
2017-11-05T09:52:01.664Z,1.60
2017-11-05T09:54:29.102Z,2.17
2017-11-05T09:56:58.283Z,1.50
2017-11-05T09:59:30.582Z,1.50
2017-11-05T10:01:58.868Z,1.53
2017-11-05T10:04:26.297Z,1.40
2017-11-05T10:06:54.479Z,1.70
2017-11-05T10:09:21.916Z,1.30
2017-11-05T10:11:50.677Z,1.40
2017-11-05T10:14:18.110Z,1.43
2017-11-05T10:16:45.537Z,1.13
2017-11-05T10:19:12.975Z,1.50
2017-11-05T10:21:41.444Z,1.30
2017-11-05T10:24:08.863Z,1.57
2017-11-05T10:26:36.315Z,1.73
2017-11-05T10:29:03.743Z,1.40
2017-11-05T10:31:31.674Z,1.70
2017-11-05T10:33:59.111Z,1.63
2017-11-05T10:36:26.532Z,1.80
2017-11-05T10:38:54.446Z,1.27
2017-11-05T10:41:21.872Z,1.30
2017-11-05T10:43:49.882Z,1.50
2017-11-05T10:46:17.311Z,2.17
2017-11-05T10:48:45.564Z,1.70
2017-11-05T10:51:13.346Z,2.20
2017-11-05T10:53:40.785Z,2.70
2017-11-05T10:56:08.763Z,1.63
2017-11-05T10:58:36.213Z,1.57
2017-11-05T11:01:04.398Z,1.40
2017-11-05T11:03:31.831Z,1.33
2017-11-05T11:05:59.268Z,1.30
2017-11-05T11:08:27.464Z,1.40
2017-11-05T11:10:54.889Z,1.20
2017-11-05T11:13:22.523Z,1.30
2017-11-05T11:15:49.969Z,1.20
2017-11-05T11:18:17.968Z,1.13
2017-11-05T11:20:45.399Z,1.10
2017-11-05T11:23:12.829Z,1.20
2017-11-05T11:25:40.264Z,1.47
2017-11-05T11:28:08.467Z,1.33
2017-11-05T11:30:35.916Z,1.40
2017-11-05T11:33:05.290Z,1.40
2017-11-05T11:35:33.495Z,1.40
2017-11-05T11:38:01.353Z,1.87
2017-11-05T11:40:28.801Z,1.27
2017-11-05T11:42:58.900Z,1.30
2017-11-05T11:45:26.339Z,1.40
2017-11-05T11:47:53.770Z,1.50
2017-11-05T11:50:21.759Z,1.50
2017-11-05T11:52:49.192Z,1.53
2017-11-05T11:55:19.076Z,1.23
2017-11-05T11:57:46.555Z,1.50
2017-11-05T12:00:14.900Z,1.20
2017-11-05T12:02:43.106Z,1.57
2017-11-05T12:05:10.544Z,1.40
2017-11-05T12:07:38.271Z,1.50
2017-11-05T12:10:05.692Z,1.60
2017-11-05T12:12:34.153Z,1.30
2017-11-05T12:15:01.586Z,1.47
2017-11-05T12:17:29.788Z,1.50
2017-11-05T12:19:58.033Z,1.60
2017-11-05T12:22:26.847Z,1.63
2017-11-05T12:24:55.655Z,1.20
2017-11-05T12:27:23.070Z,1.70
2017-11-05T12:29:51.291Z,1.27
2017-11-05T12:32:18.737Z,1.47
2017-11-05T12:34:46.173Z,1.37
2017-11-05T12:37:14.684Z,1.40
2017-11-05T12:39:42.123Z,1.47
2017-11-05T12:42:09.547Z,1.30
2017-11-05T12:44:37.750Z,1.43
2017-11-05T12:47:05.198Z,1.33
2017-11-05T12:49:33.385Z,1.40
2017-11-05T12:52:01.903Z,1.70
2017-11-05T12:54:30.308Z,1.70
2017-11-05T12:56:57.751Z,1.70
2017-11-05T12:59:25.176Z,1.77
2017-11-05T13:01:52.618Z,1.60
2017-11-05T13:04:21.685Z,2.37
2017-11-05T13:06:49.126Z,1.70
2017-11-05T13:09:16.670Z,1.80
2017-11-05T13:11:44.107Z,2.10
2017-11-05T13:14:11.532Z,1.77
2017-11-05T13:16:39.730Z,2.40
2017-11-05T13:19:07.155Z,2.70
2017-11-05T13:21:35.769Z,2.77
2017-11-05T13:24:03.191Z,2.47
2017-11-05T13:26:31.401Z,3.03
2017-11-05T13:28:59.216Z,3.40
2017-11-05T13:31:26.645Z,3.20
2017-11-05T13:33:54.086Z,3.57
2017-11-05T13:36:21.516Z,3.10
2017-11-05T13:38:48.942Z,2.70
2017-11-05T13:41:16.394Z,3.37
2017-11-05T13:43:43.824Z,2.50
2017-11-05T13:46:11.263Z,3.27
2017-11-05T13:48:38.689Z,2.63
2017-11-05T13:51:08.810Z,2.90
2017-11-05T13:53:37.005Z,3.37
2017-11-05T13:56:04.450Z,3.43
2017-11-05T13:58:32.649Z,3.00
2017-11-05T14:01:00.095Z,3.10
2017-11-05T14:03:27.514Z,2.70
2017-11-05T14:05:54.946Z,2.80
2017-11-05T14:08:22.389Z,2.83
2017-11-05T14:10:49.826Z,3.30
2017-11-05T14:13:17.255Z,2.67
2017-11-05T14:15:45.461Z,2.77
2017-11-05T14:18:12.899Z,2.70
2017-11-05T14:20:40.385Z,2.70
2017-11-05T14:23:07.823Z,2.70
2017-11-05T14:25:35.258Z,2.93
2017-11-05T14:28:03.455Z,2.80
2017-11-05T14:30:30.895Z,2.37
2017-11-05T14:32:59.114Z,2.13
2017-11-05T14:35:26.543Z,2.73
2017-11-05T14:37:53.982Z,2.37
2017-11-05T14:40:22.188Z,2.60
2017-11-05T14:42:49.622Z,2.50
2017-11-05T14:45:17.056Z,2.17
2017-11-05T14:47:44.495Z,2.23
2017-11-05T14:50:11.923Z,2.50
2017-11-05T14:52:39.361Z,2.20
2017-11-05T14:55:08.725Z,2.40
2017-11-05T14:57:37.116Z,2.30
2017-11-05T15:00:05.313Z,2.50
2017-11-05T15:02:33.015Z,2.43
2017-11-05T15:05:00.430Z,2.57
2017-11-05T15:07:27.865Z,3.03
2017-11-05T15:09:56.623Z,2.53
2017-11-05T15:12:24.060Z,2.50
2017-11-05T15:14:51.487Z,2.20
2017-11-05T15:17:19.459Z,2.50
2017-11-05T15:19:46.883Z,2.57
2017-11-05T15:22:14.315Z,2.63
2017-11-05T15:24:41.760Z,2.50
2017-11-05T15:27:09.876Z,2.03
2017-11-05T15:29:37.287Z,3.07
2017-11-05T15:32:05.282Z,2.63
2017-11-05T15:34:32.731Z,2.50
2017-11-05T15:37:00.167Z,2.50
2017-11-05T15:39:30.022Z,2.60
2017-11-05T15:41:57.464Z,2.90
2017-11-05T15:44:26.197Z,3.57
2017-11-05T15:46:54.330Z,3.00
2017-11-05T15:49:21.776Z,3.20
2017-11-05T15:51:49.964Z,4.50
2017-11-05T15:54:17.394Z,5.50
2017-11-05T15:56:44.831Z,4.40
2017-11-05T15:59:12.251Z,4.20
2017-11-05T16:01:40.466Z,3.87
2017-11-05T16:04:07.886Z,3.80
2017-11-05T16:06:37.131Z,3.70
2017-11-05T16:09:04.538Z,4.20
2017-11-05T16:11:32.751Z,3.40
2017-11-05T16:14:00.179Z,3.60
2017-11-05T16:16:28.367Z,3.13
2017-11-05T16:18:55.803Z,3.37
2017-11-05T16:21:24.002Z,3.43
2017-11-05T16:23:51.447Z,4.07
2017-11-05T16:26:20.192Z,4.67
2017-11-05T16:28:47.640Z,4.37
2017-11-05T16:31:15.071Z,5.10
2017-11-05T16:33:42.615Z,5.43
2017-11-05T16:36:10.368Z,4.43
2017-11-05T16:38:38.555Z,4.60
2017-11-05T16:41:06.713Z,4.60
2017-11-05T16:43:34.922Z,4.93
2017-11-05T16:46:02.340Z,4.43
2017-11-05T16:48:30.547Z,4.30
2017-11-05T16:50:58.522Z,4.73
2017-11-05T16:53:25.973Z,3.90
2017-11-05T16:55:53.395Z,4.30
2017-11-05T16:58:21.604Z,5.73
2017-11-05T17:00:49.035Z,7.70
2017-11-05T17:03:18.194Z,6.03
2017-11-05T17:05:45.628Z,5.77
2017-11-05T17:08:13.062Z,5.57
2017-11-05T17:10:42.437Z,5.17
2017-11-05T17:13:10.272Z,5.33
2017-11-05T17:15:37.700Z,5.13
2017-11-05T17:18:05.142Z,5.60
2017-11-05T17:20:33.126Z,5.17
2017-11-05T17:23:00.558Z,5.93
2017-11-05T17:25:27.987Z,4.73
2017-11-05T17:27:55.418Z,4.93
2017-11-05T17:30:23.403Z,4.70
2017-11-05T17:32:50.844Z,4.60
2017-11-05T17:35:18.275Z,5.53
2017-11-05T17:37:45.707Z,6.10
2017-11-05T17:40:13.910Z,5.07
2017-11-05T17:42:41.352Z,5.23
2017-11-05T17:45:08.783Z,4.47
2017-11-05T17:47:46.763Z,5.03
2017-11-05T17:50:14.190Z,5.00
2017-11-05T17:52:41.643Z,5.20
2017-11-05T17:55:09.066Z,6.20
2017-11-05T17:57:37.269Z,5.57
2017-11-05T18:00:05.259Z,7.10
2017-11-05T18:02:32.699Z,9.80
2017-11-05T18:05:00.129Z,9.87
2017-11-05T18:07:28.875Z,10.50
2017-11-05T18:09:56.302Z,9.60
2017-11-05T18:12:23.742Z,8.90
2017-11-05T18:14:51.184Z,8.10
2017-11-05T18:17:19.394Z,7.90
2017-11-05T18:19:46.818Z,8.60
2017-11-05T18:22:15.039Z,7.50
2017-11-05T18:24:42.462Z,8.87
2017-11-05T18:27:09.912Z,14.83
2017-11-05T18:29:37.348Z,15.40
2017-11-05T18:32:04.814Z,11.90
2017-11-05T18:34:33.002Z,7.37
2017-11-05T18:37:00.436Z,5.83
2017-11-05T18:39:27.875Z,4.80
2017-11-05T18:41:55.299Z,4.50
2017-11-05T18:44:22.738Z,4.43
2017-11-05T18:46:50.166Z,4.20
2017-11-05T18:49:17.599Z,3.43
2017-11-05T18:51:45.020Z,3.03
2017-11-05T18:54:13.357Z,4.13
2017-11-05T18:56:40.782Z,3.90
2017-11-05T18:59:08.211Z,3.93
2017-11-05T19:01:35.656Z,3.77
2017-11-05T19:04:03.107Z,3.70
2017-11-05T19:06:31.300Z,3.63
2017-11-05T19:08:58.743Z,4.63
2017-11-05T19:11:26.175Z,4.00
2017-11-05T19:13:53.611Z,4.00
2017-11-05T19:16:21.044Z,3.60
2017-11-05T19:18:48.889Z,3.60
2017-11-05T19:21:16.334Z,3.43
2017-11-05T19:23:43.856Z,3.97
2017-11-05T19:26:14.764Z,3.93
2017-11-05T19:28:42.207Z,4.03
2017-11-05T19:31:10.007Z,4.07
2017-11-05T19:33:37.484Z,3.27
2017-11-05T19:36:05.129Z,3.30
2017-11-05T19:38:33.058Z,3.80
2017-11-05T19:41:00.484Z,3.57
2017-11-05T19:43:28.703Z,4.50
2017-11-05T19:45:56.162Z,3.30
2017-11-05T19:48:23.676Z,3.40
2017-11-05T19:50:51.200Z,3.80
2017-11-05T19:53:18.683Z,4.17
2017-11-05T19:55:46.152Z,2.93
2017-11-05T19:58:14.412Z,2.90
2017-11-05T20:00:41.855Z,3.80
2017-11-05T20:03:09.327Z,3.57
2017-11-05T20:05:37.034Z,3.73
2017-11-05T20:08:04.507Z,4.03
2017-11-05T20:10:32.832Z,3.40
2017-11-05T20:13:01.285Z,3.70
2017-11-05T20:15:44.455Z,3.80
2017-11-05T20:18:11.955Z,4.00
2017-11-05T20:20:39.604Z,4.60
2017-11-05T20:23:07.053Z,4.17
2017-11-05T20:25:34.560Z,3.73
2017-11-05T20:28:02.020Z,3.00
2017-11-05T20:30:29.510Z,3.10
2017-11-05T20:32:57.029Z,2.90
2017-11-05T20:35:24.461Z,3.20
2017-11-05T20:37:52.276Z,2.73
2017-11-05T20:40:20.699Z,2.63
2017-11-05T20:42:48.194Z,2.50
2017-11-05T20:45:15.634Z,3.23
2017-11-05T20:47:43.132Z,3.20
2017-11-05T20:50:11.420Z,4.00
2017-11-05T20:52:38.925Z,3.50
2017-11-05T20:55:06.400Z,3.87
2017-11-05T20:57:33.928Z,4.13
2017-11-05T21:00:01.412Z,5.30
2017-11-05T21:02:28.908Z,4.30
2017-11-05T21:05:16.485Z,4.27
2017-11-05T21:07:43.978Z,4.90
2017-11-05T21:10:12.189Z,4.90
2017-11-05T21:12:39.629Z,5.57
2017-11-05T21:15:07.071Z,4.57
2017-11-05T21:17:35.281Z,5.03
2017-11-05T21:20:02.725Z,6.00
2017-11-05T21:22:30.847Z,5.60
2017-11-05T21:25:11.480Z,4.90
2017-11-05T21:27:38.924Z,4.90
2017-11-05T21:30:06.357Z,4.50
2017-11-05T21:32:34.562Z,4.93
2017-11-05T21:35:02.924Z,6.07
2017-11-05T21:37:31.112Z,5.30
2017-11-05T21:39:58.688Z,5.50
2017-11-05T21:42:26.136Z,6.23
2017-11-05T21:44:53.567Z,5.30
2017-11-05T21:47:20.997Z,5.97
2017-11-05T21:49:48.443Z,5.47
2017-11-05T21:52:15.882Z,5.00
2017-11-05T21:54:44.314Z,5.17
2017-11-05T21:57:12.517Z,6.10
2017-11-05T21:59:39.959Z,5.30
2017-11-05T22:02:07.699Z,4.80
2017-11-05T22:04:35.139Z,4.27
2017-11-05T22:07:02.573Z,5.63
2017-11-05T22:09:30.021Z,5.23
2017-11-05T22:11:57.735Z,5.80
2017-11-05T22:14:25.157Z,5.40
2017-11-05T22:16:52.590Z,5.03
2017-11-05T22:19:20.032Z,6.07
2017-11-05T22:21:48.084Z,5.93
2017-11-05T22:24:16.588Z,5.93
2017-11-05T22:26:44.003Z,6.53
2017-11-05T22:29:12.011Z,6.27
2017-11-05T22:31:39.672Z,6.77
2017-11-05T22:34:07.524Z,5.83
2017-11-05T22:36:35.716Z,6.23
2017-11-05T22:39:03.142Z,6.30
2017-11-05T22:41:31.346Z,5.83
2017-11-05T22:43:58.774Z,6.50
2017-11-05T22:46:26.974Z,6.33
2017-11-05T22:48:54.955Z,6.90
2017-11-05T22:51:22.402Z,6.57
2017-11-05T22:53:49.817Z,6.57
2017-11-05T22:56:17.897Z,6.30
2017-11-05T22:58:45.315Z,6.83
2017-11-05T23:01:12.749Z,7.20
2017-11-05T23:03:40.791Z,6.57
2017-11-05T23:06:09.397Z,6.13
2017-11-05T23:08:36.827Z,6.40
2017-11-05T23:11:04.258Z,5.80
2017-11-05T23:13:31.702Z,6.57
2017-11-05T23:15:59.570Z,6.40
2017-11-05T23:18:27.003Z,5.80
2017-11-05T23:20:54.439Z,5.60
2017-11-05T23:23:21.873Z,6.30
2017-11-05T23:25:49.299Z,6.50
2017-11-05T23:28:16.739Z,5.73
2017-11-05T23:30:44.175Z,6.83
2017-11-05T23:33:11.612Z,7.47
2017-11-05T23:35:39.829Z,6.80
2017-11-05T23:38:07.250Z,6.37
2017-11-05T23:40:34.687Z,7.20
2017-11-05T23:43:02.988Z,6.87
2017-11-05T23:45:31.175Z,7.03
2017-11-05T23:47:58.618Z,7.33
2017-11-05T23:50:26.816Z,7.20
2017-11-05T23:52:54.271Z,7.80
2017-11-05T23:55:21.692Z,7.60
2017-11-05T23:57:49.904Z,6.50
